createdAt,value
2022-09-20T00:01:38.362Z,12.90
2022-09-20T00:04:09.537Z,10.68
2022-09-20T00:06:39.695Z,10.90
2022-09-20T00:09:09.654Z,8.40
2022-09-20T00:11:40.392Z,10.10
2022-09-20T00:14:10.601Z,7.90
2022-09-20T00:16:42.290Z,9.43
2022-09-20T00:19:23.833Z,8.30
2022-09-20T00:21:53.743Z,10.45
2022-09-20T00:24:23.631Z,12.43
2022-09-20T00:26:53.971Z,10.90
2022-09-20T00:29:24.013Z,9.80
2022-09-20T00:31:53.996Z,9.82
2022-09-20T00:34:41.950Z,9.20
2022-09-20T00:37:11.904Z,8.85
2022-09-20T00:39:41.797Z,8.65
2022-09-20T00:42:15.148Z,11.85
2022-09-20T00:47:40.120Z,6.45
2022-09-20T00:50:17.545Z,14.80
2022-09-20T00:52:48.380Z,16.05
2022-09-20T00:55:18.330Z,9.50
2022-09-20T00:57:48.278Z,13.23
2022-09-20T01:00:18.270Z,8.38
2022-09-20T01:02:53.389Z,10.80
2022-09-20T01:05:23.394Z,10.05
2022-09-20T01:07:53.339Z,9.00
2022-09-20T01:10:23.327Z,12.82
2022-09-20T01:12:53.931Z,11.20
2022-09-20T01:15:24.568Z,7.80
2022-09-20T01:17:55.364Z,11.15
2022-09-20T01:20:44.022Z,9.18
2022-09-20T01:23:41.545Z,9.27
2022-09-20T01:26:30.418Z,7.82
2022-09-20T01:29:21.511Z,9.82
2022-09-20T01:31:59.095Z,8.38
2022-09-20T01:34:35.434Z,7.18
2022-09-20T01:37:26.177Z,7.68
2022-09-20T01:39:59.903Z,9.20
2022-09-20T01:42:35.408Z,10.57
2022-09-20T01:45:12.743Z,7.63
2022-09-20T01:48:01.130Z,7.68
2022-09-20T01:50:57.390Z,8.38
2022-09-20T01:53:59.262Z,9.13
2022-09-20T01:57:01.001Z,6.63
2022-09-20T01:59:39.947Z,7.97
2022-09-20T02:02:11.516Z,9.00
2022-09-20T02:05:17.881Z,7.30
2022-09-20T02:08:06.422Z,8.43
2022-09-20T02:10:43.451Z,7.70
2022-09-20T02:13:49.904Z,9.55
2022-09-20T02:16:49.948Z,10.25
2022-09-20T02:19:34.742Z,9.82
2022-09-20T02:22:17.035Z,13.43
2022-09-20T02:25:06.736Z,9.68
2022-09-20T02:31:11.211Z,8.63
2022-09-20T02:33:46.980Z,15.45
2022-09-20T02:36:36.798Z,11.15
2022-09-20T02:39:22.919Z,26.23
2022-09-20T02:42:13.048Z,29.60
2022-09-20T02:45:06.198Z,23.75
2022-09-20T02:47:44.239Z,26.92
2022-09-20T02:50:26.852Z,20.35
2022-09-20T02:56:13.760Z,22.75
2022-09-20T02:59:05.463Z,22.23
2022-09-20T03:01:53.703Z,18.80
2022-09-20T03:04:42.040Z,20.25
2022-09-20T03:07:16.549Z,24.42
2022-09-20T03:10:04.540Z,21.88
2022-09-20T03:12:48.149Z,16.73
2022-09-20T03:18:20.988Z,16.77
2022-09-20T03:20:58.222Z,19.73
2022-09-20T03:23:46.618Z,19.45
2022-09-20T03:26:43.414Z,14.55
2022-09-20T03:29:37.492Z,16.95
2022-09-20T03:32:47.782Z,21.48
2022-09-20T03:35:32.942Z,15.85
2022-09-20T03:38:16.165Z,17.60
2022-09-20T03:40:57.738Z,18.08
2022-09-20T03:43:56.503Z,16.98
2022-09-20T03:46:30.021Z,20.52
2022-09-20T03:49:21.947Z,14.75
2022-09-20T03:52:15.350Z,14.65
2022-09-20T03:55:09.656Z,13.15
2022-09-20T03:57:48.891Z,15.50
2022-09-20T04:00:40.966Z,15.63
2022-09-20T04:03:23.302Z,14.43
2022-09-20T04:06:22.465Z,13.25
2022-09-20T04:08:52.491Z,13.43
2022-09-20T04:12:06.910Z,16.38
2022-09-20T04:17:44.498Z,18.33
2022-09-20T04:20:49.631Z,13.35
2022-09-20T04:23:37.469Z,16.70
2022-09-20T04:26:07.716Z,14.88
2022-09-20T04:28:49.005Z,15.48
2022-09-20T04:31:29.443Z,14.07
2022-09-20T04:33:59.582Z,17.98
2022-09-20T04:36:39.223Z,14.60
2022-09-20T04:39:27.262Z,13.30
2022-09-20T04:42:35.234Z,13.52
2022-09-20T04:45:38.404Z,14.73
2022-09-20T04:48:39.390Z,14.85
2022-09-20T04:51:35.508Z,13.38
2022-09-20T04:54:27.155Z,11.82
2022-09-20T04:57:15.237Z,14.30
2022-09-20T05:00:09.858Z,13.80
2022-09-20T05:03:24.321Z,13.75
2022-09-20T05:09:19.429Z,11.68
2022-09-20T05:12:15.207Z,15.38
2022-09-20T05:15:09.270Z,11.85
2022-09-20T05:17:47.175Z,18.38
2022-09-20T05:20:20.217Z,11.35
2022-09-20T05:22:59.593Z,15.90
2022-09-20T05:25:53.258Z,12.30
2022-09-20T05:28:41.861Z,11.55
2022-09-20T05:31:19.985Z,13.20
2022-09-20T05:34:01.908Z,13.82
2022-09-20T05:36:50.408Z,14.07
2022-09-20T05:39:38.913Z,15.52
2022-09-20T05:42:30.435Z,10.82
2022-09-20T05:45:22.691Z,12.65
2022-09-20T05:48:08.082Z,14.73
2022-09-20T05:50:41.297Z,12.02
2022-09-20T05:53:20.266Z,14.02
2022-09-20T05:56:30.306Z,11.70
2022-09-20T05:59:15.529Z,13.52
2022-09-20T06:02:09.951Z,14.07
2022-09-20T06:04:54.463Z,13.10
2022-09-20T06:07:59.310Z,14.82
2022-09-20T06:10:32.271Z,10.77
2022-09-20T06:13:26.617Z,12.25
2022-09-20T06:16:07.200Z,13.88
2022-09-20T06:18:59.572Z,11.82
2022-09-20T06:22:00.889Z,17.60
2022-09-20T06:24:51.540Z,18.25
2022-09-20T06:27:25.520Z,13.90
2022-09-20T06:29:57.699Z,12.32
2022-09-20T06:32:28.116Z,11.60
2022-09-20T06:34:58.066Z,13.82
2022-09-20T06:37:49.263Z,12.00
2022-09-20T06:40:45.077Z,12.45
2022-09-20T06:43:15.710Z,13.45
2022-09-20T06:45:46.041Z,18.40
2022-09-20T06:48:16.730Z,11.43
2022-09-20T06:50:47.498Z,16.33
2022-09-20T06:53:22.838Z,12.48
2022-09-20T06:55:53.990Z,12.35
2022-09-20T06:58:23.960Z,12.05
2022-09-20T07:00:55.081Z,10.95
2022-09-20T07:03:25.164Z,12.57
2022-09-20T07:05:55.417Z,15.25
2022-09-20T07:08:25.352Z,15.25
2022-09-20T07:10:55.822Z,11.85
2022-09-20T07:13:26.513Z,13.32
2022-09-20T07:16:03.393Z,15.50
2022-09-20T07:18:34.764Z,14.00
2022-09-20T07:21:04.717Z,14.90
2022-09-20T07:23:34.722Z,11.18
2022-09-20T07:26:04.704Z,10.90
2022-09-20T07:28:35.983Z,13.77
2022-09-20T07:31:06.023Z,12.93
2022-09-20T07:33:36.009Z,12.48
2022-09-20T07:36:06.292Z,14.27
2022-09-20T07:38:36.284Z,12.40
2022-09-20T07:41:06.544Z,12.95
2022-09-20T07:43:37.676Z,15.13
2022-09-20T07:46:08.336Z,12.32
2022-09-20T07:48:38.393Z,14.85
2022-09-20T07:51:10.222Z,13.68
2022-09-20T07:53:40.251Z,14.00
2022-09-20T07:56:14.023Z,13.13
2022-09-20T07:58:50.078Z,15.65
2022-09-20T08:01:23.800Z,10.77
2022-09-20T08:03:54.331Z,10.93
2022-09-20T08:06:24.705Z,14.23
2022-09-20T08:08:55.879Z,11.85
2022-09-20T08:11:28.052Z,13.70
2022-09-20T08:14:16.588Z,11.63
2022-09-20T08:16:51.624Z,12.63
2022-09-20T08:19:23.169Z,13.10
2022-09-20T08:21:56.766Z,14.75
2022-09-20T08:24:27.965Z,12.25
2022-09-20T08:26:57.995Z,10.32
2022-09-20T08:29:27.914Z,12.80
2022-09-20T08:31:59.466Z,12.32
2022-09-20T08:34:29.579Z,15.18
2022-09-20T08:36:59.585Z,9.15
2022-09-20T08:42:43.795Z,13.88
2022-09-20T08:45:23.224Z,11.38
2022-09-20T08:48:06.764Z,16.42
2022-09-20T08:50:38.004Z,16.45
2022-09-20T08:53:07.882Z,12.57
2022-09-20T08:55:41.470Z,12.93
2022-09-20T08:58:15.813Z,11.98
2022-09-20T09:00:48.329Z,13.82
2022-09-20T09:03:18.721Z,17.35
2022-09-20T09:05:53.918Z,15.02
2022-09-20T09:08:28.239Z,20.40
2022-09-20T09:10:59.575Z,13.40
2022-09-20T09:13:49.044Z,15.60
2022-09-20T09:16:27.325Z,14.80
2022-09-20T09:19:00.327Z,12.20
2022-09-20T09:21:31.002Z,12.43
2022-09-20T09:24:05.501Z,13.68
2022-09-20T09:26:40.803Z,15.77
2022-09-20T09:29:20.098Z,10.85
2022-09-20T09:31:51.727Z,13.05
2022-09-20T09:34:35.176Z,13.50
2022-09-20T09:37:05.378Z,16.40
2022-09-20T09:39:39.276Z,12.88
2022-09-20T09:42:23.557Z,12.93
2022-09-20T09:44:53.448Z,14.13
2022-09-20T09:47:30.023Z,14.00
2022-09-20T09:50:03.911Z,13.75
2022-09-20T09:52:37.896Z,14.10
2022-09-20T09:55:08.748Z,12.07
2022-09-20T09:58:07.650Z,17.05
2022-09-20T10:00:44.139Z,15.18
2022-09-20T10:03:28.873Z,14.82
2022-09-20T10:06:21.026Z,12.07
2022-09-20T10:09:06.895Z,14.93
2022-09-20T10:12:02.040Z,14.00
2022-09-20T10:15:19.965Z,14.95
2022-09-20T10:18:30.764Z,15.00
2022-09-20T10:21:26.919Z,12.73
2022-09-20T10:24:23.217Z,12.32
2022-09-20T10:27:07.364Z,13.13
2022-09-20T10:29:56.136Z,11.50
2022-09-20T10:32:44.450Z,8.40
2022-09-20T10:35:46.616Z,8.65
2022-09-20T10:38:24.634Z,10.07
2022-09-20T10:41:47.888Z,11.13
2022-09-20T10:44:20.648Z,11.52
2022-09-20T10:47:08.828Z,21.05
2022-09-20T10:49:58.496Z,9.68
2022-09-20T10:52:32.703Z,15.88
2022-09-20T10:55:28.830Z,8.77
2022-09-20T10:58:05.251Z,10.77
2022-09-20T11:01:04.105Z,10.32
2022-09-20T11:03:36.813Z,15.10
2022-09-20T11:06:11.025Z,10.57
2022-09-20T11:08:41.223Z,9.57
2022-09-20T11:11:13.593Z,9.90
2022-09-20T11:14:01.788Z,11.60
2022-09-20T11:16:47.021Z,11.68
2022-09-20T11:19:24.635Z,9.50
2022-09-20T11:22:16.221Z,12.20
2022-09-20T11:24:50.931Z,9.07
2022-09-20T11:27:33.371Z,12.32
2022-09-20T11:30:06.299Z,15.07
2022-09-20T11:32:50.299Z,11.77
2022-09-20T11:35:36.506Z,9.70
2022-09-20T11:38:35.706Z,9.25
2022-09-20T11:41:30.027Z,11.35
2022-09-20T11:44:09.344Z,12.80
2022-09-20T11:47:07.959Z,9.95
2022-09-20T11:50:15.040Z,11.05
2022-09-20T11:53:03.096Z,12.68
2022-09-20T11:55:39.061Z,16.83
2022-09-20T11:58:23.613Z,15.40
2022-09-20T12:00:56.369Z,14.20
2022-09-20T12:03:39.266Z,14.45
2022-09-20T12:06:14.126Z,15.80
2022-09-20T12:08:44.243Z,13.05
2022-09-20T12:11:15.502Z,20.40
2022-09-20T12:13:54.630Z,15.77
2022-09-20T12:16:44.687Z,14.75
2022-09-20T12:19:38.002Z,14.98
2022-09-20T12:22:10.927Z,11.48
2022-09-20T12:24:45.096Z,17.55
2022-09-20T12:27:45.021Z,14.55
2022-09-20T12:30:19.495Z,17.35
2022-09-20T12:32:58.454Z,15.75
2022-09-20T12:35:40.777Z,11.30
2022-09-20T12:38:22.661Z,13.75
2022-09-20T12:41:08.390Z,16.63
2022-09-20T12:43:55.014Z,13.23
2022-09-20T12:46:39.142Z,14.85
2022-09-20T12:49:53.450Z,13.02
2022-09-20T12:55:46.921Z,19.20
2022-09-20T12:58:16.867Z,21.88
2022-09-20T13:01:01.945Z,20.42
2022-09-20T13:03:45.544Z,21.20
2022-09-20T13:06:21.852Z,19.23
2022-09-20T13:09:02.368Z,16.08
2022-09-20T13:11:46.880Z,14.38
2022-09-20T13:14:26.526Z,17.83
2022-09-20T13:17:24.588Z,17.45
2022-09-20T13:19:54.790Z,14.02
2022-09-20T13:22:31.477Z,15.38
2022-09-20T13:25:06.651Z,18.67
2022-09-20T13:27:39.293Z,16.58
2022-09-20T13:30:25.351Z,20.45
2022-09-20T13:32:56.286Z,18.30
2022-09-20T13:35:33.652Z,18.50
2022-09-20T13:38:08.891Z,16.33
2022-09-20T13:40:50.984Z,18.85
2022-09-20T13:43:31.744Z,23.42
2022-09-20T13:46:08.860Z,20.85
2022-09-20T13:48:39.097Z,17.38
2022-09-20T13:51:25.198Z,21.75
2022-09-20T13:53:55.354Z,20.70
2022-09-20T13:56:27.540Z,21.88
2022-09-20T13:59:00.066Z,19.05
2022-09-20T14:01:36.942Z,24.07
2022-09-20T14:04:26.841Z,20.27
2022-09-20T14:06:57.846Z,20.15
2022-09-20T14:09:35.820Z,20.60
2022-09-20T14:12:06.534Z,20.40
2022-09-20T14:14:37.541Z,17.50
2022-09-20T14:17:08.070Z,16.52
2022-09-20T14:19:41.991Z,24.08
2022-09-20T14:22:24.652Z,21.52
2022-09-20T14:25:23.165Z,18.77
2022-09-20T14:28:22.184Z,18.38
2022-09-20T14:30:53.663Z,8.77
2022-09-20T14:33:24.649Z,11.95
2022-09-20T14:35:54.642Z,11.38
2022-09-20T14:38:26.766Z,11.02
2022-09-20T14:40:58.670Z,19.35
2022-09-20T14:43:32.775Z,14.15
2022-09-20T14:46:17.485Z,15.80
2022-09-20T14:48:47.671Z,16.40
2022-09-20T14:51:22.530Z,18.05
2022-09-20T14:54:07.896Z,18.00
2022-09-20T14:56:50.403Z,18.30
2022-09-20T14:59:22.148Z,14.70
2022-09-20T15:02:11.584Z,18.35
2022-09-20T15:04:42.474Z,14.77
2022-09-20T15:07:16.388Z,17.92
2022-09-20T15:09:47.070Z,19.45
2022-09-20T15:12:21.747Z,16.33
2022-09-20T15:14:51.749Z,21.67
2022-09-20T15:17:22.883Z,16.80
2022-09-20T15:19:53.087Z,16.35
2022-09-20T15:22:23.271Z,21.35
2022-09-20T15:24:53.337Z,19.15
2022-09-20T15:27:28.067Z,15.10
2022-09-20T15:29:58.409Z,16.80
2022-09-20T15:32:28.695Z,17.40
2022-09-20T15:34:58.732Z,16.67
2022-09-20T15:37:28.858Z,17.17
2022-09-20T15:39:59.473Z,17.55
2022-09-20T15:42:30.299Z,19.75
2022-09-20T15:45:00.343Z,13.52
2022-09-20T15:47:30.499Z,19.02
2022-09-20T15:50:01.071Z,22.65
2022-09-20T15:52:35.628Z,15.35
2022-09-20T15:55:06.188Z,18.27
2022-09-20T15:57:36.602Z,14.85
2022-09-20T16:00:07.000Z,19.48
2022-09-20T16:02:42.058Z,20.83
2022-09-20T16:05:14.470Z,15.98
2022-09-20T16:07:44.502Z,19.77
2022-09-20T16:10:15.315Z,15.70
2022-09-20T16:12:45.336Z,16.83
2022-09-20T16:15:15.330Z,17.77
2022-09-20T16:18:03.179Z,16.00
2022-09-20T16:20:33.107Z,20.27
2022-09-20T16:23:03.177Z,15.98
2022-09-20T16:25:33.469Z,17.88
2022-09-20T16:28:03.750Z,17.27
2022-09-20T16:30:33.686Z,18.70
2022-09-20T16:33:07.509Z,17.00
2022-09-20T16:35:37.508Z,15.57
2022-09-20T16:38:07.710Z,18.05
2022-09-20T16:40:37.926Z,15.90
2022-09-20T16:43:10.669Z,19.35
2022-09-20T16:45:40.995Z,13.95
2022-09-20T16:48:10.974Z,17.27
2022-09-20T16:50:40.984Z,22.30
2022-09-20T16:53:10.908Z,17.75
2022-09-20T16:55:44.916Z,20.17
2022-09-20T16:58:14.800Z,15.48
2022-09-20T17:00:44.873Z,19.20
2022-09-20T17:03:14.895Z,16.92
2022-09-20T17:05:44.770Z,18.83
2022-09-20T17:08:14.685Z,17.25
2022-09-20T17:10:45.792Z,18.65
2022-09-20T17:13:16.661Z,19.23
2022-09-20T17:15:46.682Z,16.25
2022-09-20T17:18:16.626Z,19.48
2022-09-20T17:20:46.786Z,19.55
2022-09-20T17:23:18.009Z,20.17
2022-09-20T17:25:49.288Z,16.20
2022-09-20T17:28:19.311Z,17.35
2022-09-20T17:30:49.205Z,20.02
2022-09-20T17:33:19.247Z,22.20
2022-09-20T17:35:55.128Z,18.98
2022-09-20T17:38:25.138Z,19.08
2022-09-20T17:41:21.695Z,19.42
2022-09-20T17:43:55.715Z,18.13
2022-09-20T17:46:27.185Z,20.35
2022-09-20T17:48:58.135Z,13.82
2022-09-20T17:51:36.322Z,16.75
2022-09-20T17:54:07.096Z,25.27
2022-09-20T17:56:37.398Z,19.40
2022-09-20T17:59:08.526Z,21.17
2022-09-20T18:01:38.972Z,17.17
2022-09-20T18:04:09.792Z,17.85
2022-09-20T18:06:45.390Z,16.58
2022-09-20T18:09:23.112Z,23.65
2022-09-20T18:11:54.391Z,20.08
2022-09-20T18:14:29.231Z,18.65
2022-09-20T18:17:01.971Z,20.92
2022-09-20T18:19:35.688Z,14.65
2022-09-20T18:22:06.108Z,22.40
2022-09-20T18:24:36.396Z,19.85
2022-09-20T18:27:06.485Z,17.95
2022-09-20T18:29:38.591Z,19.20
2022-09-20T18:32:09.865Z,17.88
2022-09-20T18:34:40.808Z,17.88
2022-09-20T18:37:14.562Z,14.45
2022-09-20T18:39:45.317Z,19.15
2022-09-20T18:42:15.244Z,20.13
2022-09-20T18:44:46.609Z,21.10
2022-09-20T18:47:17.202Z,17.13
2022-09-20T18:49:48.032Z,22.33
2022-09-20T18:52:19.225Z,20.50
2022-09-20T18:54:49.754Z,21.80
2022-09-20T18:57:20.074Z,18.15
2022-09-20T18:59:55.209Z,24.98
2022-09-20T19:02:33.568Z,18.33
2022-09-20T19:05:44.267Z,22.13
2022-09-20T19:08:29.136Z,22.67
2022-09-20T19:11:02.775Z,19.65
2022-09-20T19:13:39.240Z,22.85
2022-09-20T19:16:22.740Z,18.02
2022-09-20T19:19:16.152Z,25.38
2022-09-20T19:22:20.032Z,21.42
2022-09-20T19:25:07.732Z,26.35
2022-09-20T19:27:37.941Z,19.38
2022-09-20T19:30:08.522Z,23.90
2022-09-20T19:32:38.736Z,20.45
2022-09-20T19:35:20.463Z,20.05
2022-09-20T19:37:56.258Z,14.27
2022-09-20T19:40:45.388Z,23.02
2022-09-20T19:43:55.295Z,18.63
2022-09-20T19:46:45.269Z,16.65
2022-09-20T19:49:16.373Z,21.80
2022-09-20T19:51:46.811Z,24.60
2022-09-20T19:54:17.183Z,17.85
2022-09-20T19:56:57.065Z,20.42
2022-09-20T19:59:28.637Z,20.27
2022-09-20T20:01:59.520Z,15.70
2022-09-20T20:04:29.771Z,15.38
2022-09-20T20:07:07.745Z,18.98
2022-09-20T20:09:42.459Z,11.65
2022-09-20T20:12:16.127Z,14.07
2022-09-20T20:15:07.534Z,14.80
2022-09-20T20:18:18.908Z,13.07
2022-09-20T20:20:51.969Z,14.25
2022-09-20T20:23:44.196Z,12.27
2022-09-20T20:26:24.704Z,16.33
2022-09-20T20:28:54.835Z,12.18
2022-09-20T20:31:24.851Z,11.38
2022-09-20T20:33:55.930Z,13.32
2022-09-20T20:36:25.895Z,11.48
2022-09-20T20:38:56.239Z,11.88
2022-09-20T20:41:26.247Z,7.90
2022-09-20T20:43:57.430Z,8.95
2022-09-20T20:46:27.516Z,8.55
2022-09-20T20:48:57.993Z,10.20
2022-09-20T20:51:28.448Z,9.52
2022-09-20T20:53:59.589Z,7.35
2022-09-20T20:56:31.042Z,9.05
2022-09-20T20:59:01.999Z,11.75
2022-09-20T21:01:34.456Z,7.28
2022-09-20T21:04:05.813Z,8.30
2022-09-20T21:06:37.911Z,8.50
2022-09-20T21:09:08.174Z,9.43
2022-09-20T21:11:39.643Z,8.30
2022-09-20T21:14:10.214Z,9.32
2022-09-20T21:16:44.066Z,12.10
2022-09-20T21:19:19.377Z,11.00
2022-09-20T21:21:49.548Z,9.05
2022-09-20T21:24:19.596Z,7.70
2022-09-20T21:26:49.722Z,7.22
2022-09-20T21:29:23.018Z,9.30
2022-09-20T21:31:53.359Z,6.05
2022-09-20T21:34:23.286Z,7.45
2022-09-20T21:36:53.189Z,7.57
2022-09-20T21:39:23.149Z,8.02
2022-09-20T21:41:53.675Z,7.50
2022-09-20T21:44:24.116Z,5.55
2022-09-20T21:46:54.068Z,8.55
2022-09-20T21:49:24.423Z,7.85
2022-09-20T21:51:54.956Z,7.60
2022-09-20T21:54:25.330Z,7.18
2022-09-20T21:56:57.101Z,8.50
2022-09-20T21:59:28.026Z,5.68
2022-09-20T22:01:59.924Z,11.60
2022-09-20T22:04:30.632Z,5.85
2022-09-20T22:07:01.159Z,10.52
2022-09-20T22:09:31.325Z,7.55
2022-09-20T22:12:01.905Z,5.55
2022-09-20T22:14:32.103Z,8.18
2022-09-20T22:17:02.261Z,7.00
2022-09-20T22:19:33.341Z,6.55
2022-09-20T22:22:04.606Z,7.13
2022-09-20T22:24:34.976Z,4.53
2022-09-20T22:27:05.244Z,7.72
2022-09-20T22:29:35.247Z,7.93
2022-09-20T22:32:06.002Z,7.10
2022-09-20T22:34:36.802Z,6.82
2022-09-20T22:37:07.125Z,5.45
2022-09-20T22:39:37.040Z,6.50
2022-09-20T22:42:07.764Z,7.28
2022-09-20T22:44:37.735Z,10.95
2022-09-20T22:47:07.795Z,5.40
2022-09-20T22:49:37.748Z,5.05
2022-09-20T22:52:07.777Z,8.93
2022-09-20T22:54:37.697Z,6.75
2022-09-20T22:57:08.103Z,6.35
2022-09-20T22:59:38.074Z,4.10
2022-09-20T23:02:07.984Z,4.55
2022-09-20T23:04:38.602Z,5.68
2022-09-20T23:07:08.977Z,5.43
2022-09-20T23:09:39.020Z,6.45
2022-09-20T23:12:09.231Z,3.72
2022-09-20T23:14:39.565Z,4.50
2022-09-20T23:17:09.543Z,5.47
2022-09-20T23:19:39.495Z,4.55
2022-09-20T23:22:09.797Z,4.95
2022-09-20T23:24:39.773Z,7.55
2022-09-20T23:27:10.000Z,6.22
2022-09-20T23:29:40.012Z,7.57
2022-09-20T23:32:10.317Z,3.92
2022-09-20T23:34:40.297Z,5.65
2022-09-20T23:37:10.423Z,4.10
2022-09-20T23:39:42.194Z,5.75
2022-09-20T23:42:12.135Z,4.88
2022-09-20T23:44:42.085Z,3.13
2022-09-20T23:47:12.090Z,5.30
2022-09-20T23:49:42.541Z,6.22
2022-09-20T23:52:13.222Z,3.72
2022-09-20T23:54:43.409Z,5.03
2022-09-20T23:57:13.450Z,5.03
2022-09-20T23:59:43.440Z,5.10
